Time;durP1;ratioP1;P1;durP2;ratioP2;P2;SDS_P1;SDS_P2;PMS_P1;PMS_P2;Temp;Humidity;BMP_temperature;BMP_pressure;BME280_temperature;BME280_humidity;BME280_pressure;Samples;Min_cycle;Max_cycle;Signal;HPM_P1;HPM_P2
2024/01/28 00:00:53;;;;;;;30.30;19.60;;;;;;;0.80;100.00;99504.85;106313;1286;22552;-90
2024/01/28 00:03:41;;;;;;;29.20;17.90;;;;;;;0.78;100.00;99504.23;106375;1286;22551;-89
2024/01/28 00:06:09;;;;;;;30.20;18.40;;;;;;;0.79;100.00;99504.52;106419;1286;24258;-89
2024/01/28 00:08:37;;;;;;;29.80;19.90;;;;;;;0.81;100.00;99505.44;106571;1286;25232;-90
2024/01/28 00:11:05;;;;;;;29.20;18.10;;;;;;;0.85;100.00;99509.30;106543;1286;25518;-90
2024/01/28 00:13:34;;;;;;;30.00;20.10;;;;;;;0.86;100.00;99511.58;106524;1286;22551;-90
2024/01/28 00:16:03;;;;;;;35.10;22.60;;;;;;;0.88;100.00;99516.41;106869;1286;22560;-90
2024/01/28 00:18:31;;;;;;;42.80;31.30;;;;;;;0.90;100.00;99519.31;108229;1286;22781;-89
2024/01/28 00:20:59;;;;;;;32.90;22.50;;;;;;;0.92;100.00;99515.98;107292;1286;23947;-87
2024/01/28 00:23:27;;;;;;;29.00;19.80;;;;;;;0.95;100.00;99521.26;108868;1286;23218;-89
2024/01/28 00:25:55;;;;;;;31.40;21.00;;;;;;;0.99;100.00;99524.23;107203;1286;22549;-89
2024/01/28 00:28:23;;;;;;;36.80;22.90;;;;;;;1.04;100.00;99529.80;106436;1286;22737;-89
2024/01/28 00:30:51;;;;;;;39.90;23.60;;;;;;;1.08;100.00;99538.61;106470;1286;25341;-89
2024/01/28 00:33:19;;;;;;;35.50;25.40;;;;;;;1.10;100.00;99536.20;106454;1287;22566;-90
2024/01/28 00:35:48;;;;;;;35.80;26.90;;;;;;;1.10;100.00;99534.41;106466;1286;24269;-88
2024/01/28 00:38:16;;;;;;;34.00;24.10;;;;;;;1.11;100.00;99542.48;106455;1286;24310;-89
2024/01/28 00:40:44;;;;;;;35.70;22.70;;;;;;;1.12;100.00;99544.71;106477;1284;22676;-89
2024/01/28 00:43:12;;;;;;;33.20;22.60;;;;;;;1.12;100.00;99541.98;106495;1286;24211;-89
2024/01/28 00:45:42;;;;;;;35.10;25.30;;;;;;;1.14;100.00;99541.53;106484;1284;22544;-89
2024/01/28 00:48:10;;;;;;;38.50;24.10;;;;;;;1.13;100.00;99540.72;106538;1287;23293;-89
2024/01/28 00:50:38;;;;;;;40.30;26.10;;;;;;;1.09;100.00;99537.55;106555;1287;22615;-89
2024/01/28 00:53:08;;;;;;;36.90;24.60;;;;;;;1.07;100.00;99534.11;106572;1287;22572;-88
2024/01/28 00:55:36;;;;;;;36.80;24.80;;;;;;;1.07;100.00;99533.13;106544;1287;22553;-89
2024/01/28 00:58:04;;;;;;;39.10;26.30;;;;;;;1.06;100.00;99532.55;106550;1287;22557;-89
2024/01/28 01:04:19;;;;;;;41.90;28.20;;;;;;;1.05;100.00;99533.61;106540;1286;22555;-90
2024/01/28 01:06:47;;;;;;;37.80;26.90;;;;;;;1.03;100.00;99536.85;106494;1287;22552;-88
2024/01/28 01:09:16;;;;;;;39.50;26.90;;;;;;;1.03;100.00;99540.89;106423;1287;22550;-88
2024/01/28 01:11:44;;;;;;;42.20;27.10;;;;;;;1.05;100.00;99544.11;106469;1287;22909;-88
2024/01/28 01:14:12;;;;;;;40.10;27.90;;;;;;;1.07;100.00;99542.60;106466;1287;22724;-88
2024/01/28 01:16:40;;;;;;;39.30;28.00;;;;;;;1.07;100.00;99539.66;106423;1287;24193;-89
2024/01/28 01:19:08;;;;;;;45.70;30.40;;;;;;;1.05;100.00;99541.69;106448;1264;22638;-90
2024/01/28 01:21:36;;;;;;;44.80;27.00;;;;;;;1.01;100.00;99539.89;106408;1287;22592;-90
2024/01/28 01:24:04;;;;;;;37.00;25.80;;;;;;;1.02;100.00;99538.13;106448;1287;25417;-89
2024/01/28 01:26:33;;;;;;;37.80;28.90;;;;;;;1.05;100.00;99542.22;106543;1287;24382;-90
2024/01/28 01:29:01;;;;;;;38.00;26.60;;;;;;;1.07;100.00;99540.64;106467;1287;25377;-90
2024/01/28 01:32:20;;;;;;;41.70;28.10;;;;;;;1.11;100.00;99541.60;106531;1287;23200;-89
2024/01/28 01:34:48;;;;;;;38.70;27.90;;;;;;;1.11;100.00;99539.12;106574;1287;22636;-89
2024/01/28 01:37:16;;;;;;;38.50;25.90;;;;;;;1.10;100.00;99536.45;106501;1265;25461;-89
2024/01/28 01:40:14;;;;;;;37.80;27.60;;;;;;;1.08;100.00;99536.33;106503;1287;24453;-89
2024/01/28 01:42:43;;;;;;;34.50;26.20;;;;;;;1.11;100.00;99529.20;106552;1287;24196;-89
2024/01/28 01:45:12;;;;;;;38.80;26.40;;;;;;;1.12;100.00;99530.51;109612;1286;22553;-91
2024/01/28 01:47:41;;;;;;;44.70;27.70;;;;;;;1.15;100.00;99529.41;106490;1275;22833;-88
2024/01/28 01:50:11;;;;;;;40.50;30.60;;;;;;;1.16;100.00;99533.34;106444;1287;23900;-89
2024/01/28 01:52:40;;;;;;;43.70;33.30;;;;;;;1.16;100.00;99538.20;106409;1287;22666;-88
2024/01/28 01:55:09;;;;;;;38.60;30.20;;;;;;;1.13;100.00;99540.07;106430;1287;22606;-88
2024/01/28 01:57:42;;;;;;;40.20;30.60;;;;;;;1.12;100.00;99540.72;106371;1287;22556;-88
2024/01/28 02:00:14;;;;;;;40.70;31.40;;;;;;;1.13;100.00;99538.30;106481;1287;24079;-88
2024/01/28 02:02:45;;;;;;;41.90;30.80;;;;;;;1.14;100.00;99534.96;106368;1284;22662;-87
2024/01/28 02:05:14;;;;;;;41.20;32.40;;;;;;;1.17;100.00;99534.84;106441;1287;22625;-88
2024/01/28 02:07:42;;;;;;;45.80;33.30;;;;;;;1.18;100.00;99535.46;106497;1286;23560;-88
2024/01/28 02:10:12;;;;;;;41.70;32.10;;;;;;;1.18;100.00;99536.73;106513;1276;24351;-88
2024/01/28 02:12:43;;;;;;;42.20;32.30;;;;;;;1.14;100.00;99542.97;106509;1286;22576;-88
2024/01/28 02:15:12;;;;;;;44.80;31.70;;;;;;;1.15;100.00;99540.97;106466;1286;25442;-88
2024/01/28 02:17:40;;;;;;;45.90;32.20;;;;;;;1.15;100.00;99538.08;106447;1286;22665;-89
2024/01/28 02:20:08;;;;;;;48.70;32.20;;;;;;;1.24;100.00;99543.30;106410;1286;22546;-88
2024/01/28 02:22:36;;;;;;;49.50;36.30;;;;;;;1.30;100.00;99543.77;106481;1287;25289;-88
2024/01/28 02:25:06;;;;;;;49.00;36.20;;;;;;;1.34;100.00;99544.16;107364;1286;22521;-88
2024/01/28 02:27:36;;;;;;;50.10;38.30;;;;;;;1.33;100.00;99547.02;107908;1286;22594;-87
2024/01/28 02:30:04;;;;;;;45.50;33.20;;;;;;;1.32;100.00;99550.08;107742;1286;26051;-88
2024/01/28 02:32:32;;;;;;;49.60;34.70;;;;;;;1.31;100.00;99554.56;106405;1286;24008;-88
2024/01/28 02:39:36;;;;;;;51.10;33.30;;;;;;;1.37;100.00;99556.66;106462;1286;25331;-88
2024/01/28 02:42:04;;;;;;;51.80;36.60;;;;;;;1.40;100.00;99556.15;106253;1286;22608;-89
2024/01/28 02:44:33;;;;;;;52.70;37.80;;;;;;;1.42;100.00;99555.77;106470;1286;22570;-88
2024/01/28 02:47:03;;;;;;;42.50;31.90;;;;;;;1.39;100.00;99555.05;106502;1286;23816;-89
2024/01/28 02:49:31;;;;;;;43.00;30.90;;;;;;;1.38;100.00;99554.87;107175;1286;22679;-88
2024/01/28 02:51:59;;;;;;;35.70;27.90;;;;;;;1.39;100.00;99554.85;106844;1286;23295;-88
2024/01/28 02:54:27;;;;;;;35.60;26.10;;;;;;;1.42;100.00;99554.65;106522;1286;22563;-88
2024/01/28 02:56:55;;;;;;;37.90;27.80;;;;;;;1.43;100.00;99557.17;106427;1286;22603;-88
2024/01/28 02:59:24;;;;;;;43.70;29.70;;;;;;;1.42;100.00;99560.65;106802;1286;22561;-88
2024/01/28 03:01:52;;;;;;;40.70;29.10;;;;;;;1.42;100.00;99561.39;106266;1286;24376;-88
2024/01/28 03:04:20;;;;;;;36.90;26.60;;;;;;;1.43;100.00;99562.30;106335;1286;25633;-88
2024/01/28 03:06:48;;;;;;;36.60;26.00;;;;;;;1.45;100.00;99559.77;106046;1286;23286;-89
2024/01/28 03:09:18;;;;;;;29.10;23.50;;;;;;;1.46;100.00;99558.75;106096;1286;22591;-88
2024/01/28 03:11:46;;;;;;;33.50;22.60;;;;;;;1.49;100.00;99558.63;106372;1287;25403;-89
2024/01/28 03:14:14;;;;;;;33.80;23.50;;;;;;;1.52;100.00;99558.80;106967;1286;22390;-88
2024/01/28 03:16:42;;;;;;;25.60;21.00;;;;;;;1.56;100.00;99559.73;108827;1287;24180;-87
2024/01/28 03:19:10;;;;;;;29.20;21.10;;;;;;;1.60;100.00;99555.77;106539;1286;25443;-90
2024/01/28 03:21:38;;;;;;;27.30;20.40;;;;;;;1.63;100.00;99559.34;106446;1287;24467;-89
2024/01/28 03:24:07;;;;;;;26.90;20.90;;;;;;;1.67;100.00;99561.84;106486;1286;23331;-90
2024/01/28 03:26:35;;;;;;;27.00;19.70;;;;;;;1.69;100.00;99563.11;106444;1287;24459;-89
2024/01/28 03:29:07;;;;;;;23.90;18.80;;;;;;;1.70;100.00;99562.48;106534;1287;22837;-90
2024/01/28 03:31:35;;;;;;;24.20;19.70;;;;;;;1.72;100.00;99563.73;106501;1276;22676;-89
2024/01/28 03:34:03;;;;;;;28.90;21.10;;;;;;;1.74;100.00;99564.23;106321;1287;25553;-90
2024/01/28 03:36:31;;;;;;;27.10;19.90;;;;;;;1.80;100.00;99569.20;106441;1287;24374;-90
2024/01/28 03:39:06;;;;;;;23.70;19.10;;;;;;;1.80;100.00;99565.20;106425;1287;22540;-91
2024/01/28 03:41:34;;;;;;;24.00;19.40;;;;;;;1.84;100.00;99569.25;106438;1285;22556;-90
2024/01/28 03:44:02;;;;;;;25.10;20.40;;;;;;;1.83;100.00;99569.78;106433;1287;22560;-91
2024/01/28 03:47:27;;;;;;;25.20;18.00;;;;;;;1.82;100.00;99572.39;106233;1287;23634;-91
2024/01/28 03:49:55;;;;;;;27.60;19.70;;;;;;;1.85;100.00;99568.67;106442;1287;22568;-90
2024/01/28 03:52:23;;;;;;;24.50;17.90;;;;;;;1.86;100.00;99573.42;106404;1287;24272;-90
2024/01/28 03:54:51;;;;;;;22.00;17.40;;;;;;;1.87;100.00;99575.55;106503;1286;23120;-90
2024/01/28 03:57:19;;;;;;;24.30;17.80;;;;;;;1.88;100.00;99578.02;106548;1286;25422;-91
2024/01/28 04:04:34;;;;;;;23.40;15.80;;;;;;;1.84;100.00;99573.95;106574;1287;26671;-90
2024/01/28 04:07:03;;;;;;;22.90;16.70;;;;;;;1.86;100.00;99577.27;106691;1275;22825;-91
2024/01/28 04:14:04;;;;;;;25.90;17.70;;;;;;;1.91;100.00;99583.83;106709;1287;22696;-90
2024/01/28 04:16:33;;;;;;;21.70;15.70;;;;;;;1.94;100.00;99587.47;106668;1269;24239;-90
2024/01/28 04:19:00;;;;;;;24.20;17.20;;;;;;;1.94;100.00;99586.45;106601;1287;22748;-89
2024/01/28 04:21:31;;;;;;;23.60;16.80;;;;;;;1.97;100.00;99594.91;106358;1287;24427;-90
2024/01/28 04:24:00;;;;;;;20.90;15.40;;;;;;;1.96;100.00;99598.27;106559;1287;25545;-91
2024/01/28 04:26:28;;;;;;;21.70;14.60;;;;;;;1.95;100.00;99599.83;106636;1287;22534;-91
2024/01/28 04:28:56;;;;;;;21.40;14.90;;;;;;;1.95;100.00;99600.77;106375;1287;25359;-91
2024/01/28 04:31:26;;;;;;;27.40;16.00;;;;;;;1.96;100.00;99605.02;106628;1287;25411;-91
2024/01/28 04:38:22;;;;;;;23.70;16.80;;;;;;;1.96;100.00;99610.55;106735;1286;25496;-91
2024/01/28 04:40:50;;;;;;;22.30;16.20;;;;;;;1.92;100.00;99610.25;106747;1287;22711;-91
2024/01/28 04:43:21;;;;;;;24.00;16.60;;;;;;;1.96;100.00;99610.54;106662;1287;22494;-90
2024/01/28 04:45:49;;;;;;;23.60;17.60;;;;;;;1.95;100.00;99612.11;106423;1287;25428;-91
2024/01/28 04:48:20;;;;;;;25.00;17.70;;;;;;;1.97;100.00;99613.33;107639;1287;22324;-88
2024/01/28 04:50:49;;;;;;;22.50;16.10;;;;;;;1.95;100.00;99614.52;108829;1287;25905;-89
2024/01/28 04:53:17;;;;;;;24.40;16.40;;;;;;;1.95;100.00;99619.99;107048;1287;22605;-90
2024/01/28 04:55:45;;;;;;;21.10;14.50;;;;;;;1.97;100.00;99619.87;106608;1287;22726;-90
2024/01/28 04:58:13;;;;;;;20.70;14.30;;;;;;;1.97;100.00;99623.27;106561;1287;22633;-90
2024/01/28 05:00:41;;;;;;;21.50;15.50;;;;;;;1.97;100.00;99626.36;106624;1287;24291;-90
2024/01/28 05:03:09;;;;;;;21.50;13.90;;;;;;;1.94;100.00;99626.48;107074;1284;23939;-90
2024/01/28 05:05:38;;;;;;;21.80;13.40;;;;;;;1.94;100.00;99631.44;106462;1287;23092;-88
2024/01/28 05:08:06;;;;;;;17.60;12.80;;;;;;;1.96;100.00;99633.89;106610;1287;23394;-91
2024/01/28 05:10:34;;;;;;;17.90;12.90;;;;;;;1.97;100.00;99641.84;106594;1287;24282;-90
2024/01/28 05:13:02;;;;;;;22.40;15.80;;;;;;;1.99;100.00;99643.55;106514;1287;22684;-91
2024/01/28 05:15:31;;;;;;;19.60;13.60;;;;;;;2.00;100.00;99651.33;106438;1287;22550;-91
2024/01/28 05:17:59;;;;;;;20.50;14.40;;;;;;;1.98;100.00;99650.14;106416;1287;22548;-90
2024/01/28 05:20:27;;;;;;;24.60;15.30;;;;;;;2.00;100.00;99651.05;106383;1287;22695;-91
2024/01/28 05:22:59;;;;;;;21.90;14.70;;;;;;;2.03;100.00;99657.73;106587;1287;22580;-91
2024/01/28 05:25:28;;;;;;;20.60;13.20;;;;;;;2.05;100.00;99654.71;106618;1284;24276;-91
2024/01/28 05:27:56;;;;;;;20.00;13.00;;;;;;;2.02;100.00;99653.14;106590;1287;25530;-90
2024/01/28 05:31:15;;;;;;;18.20;12.50;;;;;;;2.04;100.00;99655.04;106441;1287;25447;-90
2024/01/28 05:33:45;;;;;;;17.70;12.40;;;;;;;2.02;100.00;99654.48;106588;1284;22559;-90
2024/01/28 05:36:15;;;;;;;18.80;11.40;;;;;;;2.01;100.00;99658.73;106531;1287;25319;-92
2024/01/28 05:38:44;;;;;;;16.10;10.90;;;;;;;2.00;100.00;99665.36;106580;1287;22548;-89
2024/01/28 05:41:12;;;;;;;20.80;12.20;;;;;;;2.03;100.00;99666.25;106560;1276;24230;-90
2024/01/28 05:43:40;;;;;;;17.30;12.00;;;;;;;2.05;100.00;99675.45;106536;1287;24292;-90
2024/01/28 05:46:08;;;;;;;17.20;10.80;;;;;;;2.03;100.00;99675.48;106540;1286;24764;-89
2024/01/28 05:48:36;;;;;;;20.30;11.90;;;;;;;2.05;100.00;99677.83;106402;1287;22550;-89
2024/01/28 05:51:05;;;;;;;20.30;12.00;;;;;;;2.07;100.00;99675.25;108228;1268;22515;-89
2024/01/28 05:53:33;;;;;;;21.60;14.30;;;;;;;2.07;100.00;99682.29;109034;1287;22565;-89
2024/01/28 05:56:01;;;;;;;15.80;11.30;;;;;;;2.07;100.00;99690.47;108049;1286;24385;-90
2024/01/28 05:58:29;;;;;;;19.10;12.60;;;;;;;2.08;100.00;99690.34;106400;1287;25456;-90
2024/01/28 06:01:01;;;;;;;17.20;13.00;;;;;;;2.12;100.00;99699.23;106564;1287;22656;-89
2024/01/28 06:03:30;;;;;;;17.90;13.40;;;;;;;2.14;100.00;99696.91;106854;1287;22561;-88
2024/01/28 06:06:51;;;;;;;22.20;13.20;;;;;;;2.15;100.00;99703.55;106475;1286;24516;-90
2024/01/28 06:09:19;;;;;;;20.60;12.90;;;;;;;2.15;100.00;99708.17;108736;1286;22568;-88
2024/01/28 06:11:49;;;;;;;20.30;12.90;;;;;;;2.15;100.00;99716.47;107761;1287;22601;-88
2024/01/28 06:14:17;;;;;;;19.00;12.10;;;;;;;2.10;100.00;99713.20;106349;1286;24247;-88
2024/01/28 06:16:44;;;;;;;15.80;10.10;;;;;;;2.17;100.00;99721.73;106287;1287;22551;-88
2024/01/28 06:19:12;;;;;;;15.00;10.00;;;;;;;2.19;100.00;99722.49;106396;1287;22553;-89
2024/01/28 06:21:41;;;;;;;18.10;11.20;;;;;;;2.21;100.00;99723.87;107784;1287;22404;-90
2024/01/28 06:24:09;;;;;;;17.60;10.80;;;;;;;2.19;100.00;99724.63;108469;1286;26657;-90
2024/01/28 06:26:38;;;;;;;17.80;11.20;;;;;;;2.17;100.00;99719.95;106506;1287;22631;-90
2024/01/28 06:29:06;;;;;;;15.70;11.10;;;;;;;2.17;100.00;99721.71;106146;1287;25432;-91
2024/01/28 06:31:34;;;;;;;27.50;10.80;;;;;;;2.18;100.00;99721.81;106334;1287;25341;-90
2024/01/28 06:34:02;;;;;;;17.40;12.30;;;;;;;2.16;100.00;99722.70;106442;1287;22625;-90
2024/01/28 06:36:31;;;;;;;22.70;17.10;;;;;;;2.18;100.00;99721.39;106437;1287;22700;-89
2024/01/28 06:38:59;;;;;;;26.90;17.60;;;;;;;2.18;100.00;99720.87;106468;1287;22550;-89
2024/01/28 06:41:27;;;;;;;21.30;14.50;;;;;;;2.18;100.00;99721.84;106501;1286;25415;-90
2024/01/28 06:43:55;;;;;;;26.00;16.20;;;;;;;2.16;100.00;99719.55;106516;1286;22671;-89
2024/01/28 06:46:23;;;;;;;19.70;14.40;;;;;;;2.16;100.00;99720.81;106449;1286;22666;-89
2024/01/28 06:49:41;;;;;;;18.80;12.30;;;;;;;2.18;100.00;99725.61;106361;1286;22581;-89
2024/01/28 06:52:09;;;;;;;18.00;13.80;;;;;;;2.20;100.00;99728.57;106378;1286;25470;-89
2024/01/28 06:54:41;;;;;;;20.80;15.20;;;;;;;2.18;100.00;99731.50;106273;1287;22680;-90
2024/01/28 06:57:14;;;;;;;24.80;15.50;;;;;;;2.20;100.00;99731.34;106355;1287;25292;-90
2024/01/28 06:59:43;;;;;;;19.10;14.30;;;;;;;2.20;100.00;99734.85;106393;1287;25426;-90
2024/01/28 07:02:12;;;;;;;22.00;15.10;;;;;;;2.21;100.00;99732.86;106156;1286;22556;-90
2024/01/28 07:04:40;;;;;;;25.50;16.00;;;;;;;2.23;100.00;99729.38;106266;1287;24250;-89
2024/01/28 07:07:09;;;;;;;21.40;15.60;;;;;;;2.26;100.00;99730.46;106378;1273;22547;-90
2024/01/28 07:09:39;;;;;;;26.30;17.80;;;;;;;2.24;100.00;99734.43;106536;1287;24369;-90
2024/01/28 07:12:08;;;;;;;23.20;16.10;;;;;;;2.23;100.00;99735.08;106532;1277;23073;-88
2024/01/28 07:14:37;;;;;;;23.50;17.50;;;;;;;2.18;100.00;99734.73;106301;1286;22558;-87
2024/01/28 07:17:05;;;;;;;24.60;17.50;;;;;;;2.18;100.00;99736.79;106489;1287;24321;-88
2024/01/28 07:19:33;;;;;;;23.90;18.10;;;;;;;2.21;100.00;99739.02;106371;1287;22548;-87
2024/01/28 07:22:01;;;;;;;19.10;17.00;;;;;;;2.24;100.00;99740.72;106480;1286;22900;-89
2024/01/28 07:28:14;;;;;;;25.20;18.40;;;;;;;2.18;100.00;99745.45;106511;1287;22587;-88
2024/01/28 07:30:42;;;;;;;24.10;18.00;;;;;;;2.16;100.00;99747.16;107057;1285;22686;-89
2024/01/28 07:33:11;;;;;;;23.80;19.60;;;;;;;2.17;100.00;99747.20;108692;1286;25427;-89
2024/01/28 07:35:39;;;;;;;30.70;22.40;;;;;;;2.19;100.00;99748.94;106441;1287;22783;-89
2024/01/28 07:38:11;;;;;;;27.10;19.70;;;;;;;2.21;100.00;99754.91;106458;1264;22553;-89
2024/01/28 07:40:39;;;;;;;28.20;22.90;;;;;;;2.24;100.00;99758.58;106447;1287;25380;-89
2024/01/28 07:43:07;;;;;;;35.20;25.30;;;;;;;2.29;100.00;99760.79;106373;1287;24282;-89
2024/01/28 07:45:37;;;;;;;28.90;23.20;;;;;;;2.34;100.00;99762.33;106477;1286;22674;-88
2024/01/28 07:48:06;;;;;;;32.20;25.10;;;;;;;2.34;100.00;99766.17;106355;1287;26510;-89
2024/01/28 07:50:34;;;;;;;30.60;24.30;;;;;;;2.32;100.00;99766.12;106415;1286;22652;-89
2024/01/28 07:53:02;;;;;;;27.50;21.70;;;;;;;2.31;100.00;99769.23;106745;1287;22526;-89
2024/01/28 07:55:30;;;;;;;33.70;24.90;;;;;;;2.35;100.00;99771.95;109116;1287;22210;-86
2024/01/28 07:57:58;;;;;;;35.10;30.30;;;;;;;2.38;100.00;99769.55;108485;1287;23102;-88
2024/01/28 08:00:27;;;;;;;38.00;32.50;;;;;;;2.42;100.00;99768.13;106469;1287;24623;-88
2024/01/28 08:02:55;;;;;;;32.20;28.70;;;;;;;2.44;100.00;99766.98;106569;1287;25480;-88
2024/01/28 08:05:25;;;;;;;35.90;29.40;;;;;;;2.43;100.00;99761.50;106391;1287;24236;-88
2024/01/28 08:07:53;;;;;;;26.10;23.10;;;;;;;2.38;100.00;99763.50;106420;1287;22701;-87
2024/01/28 08:10:22;;;;;;;28.20;22.80;;;;;;;2.35;100.00;99764.26;106265;1287;25090;-88
2024/01/28 08:13:21;;;;;;;34.10;23.60;;;;;;;2.32;100.00;99764.86;106424;1287;25423;-89
2024/01/28 08:15:50;;;;;;;25.90;22.80;;;;;;;2.31;100.00;99761.35;106434;1287;25257;-89
2024/01/28 08:18:18;;;;;;;26.20;22.30;;;;;;;2.33;100.00;99765.31;106402;1287;22605;-88
2024/01/28 08:20:46;;;;;;;28.90;23.10;;;;;;;2.34;100.00;99762.98;106521;1287;25638;-88
2024/01/28 08:23:14;;;;;;;27.40;20.90;;;;;;;2.38;100.00;99767.66;106335;1287;22664;-87
2024/01/28 08:25:42;;;;;;;28.20;22.20;;;;;;;2.38;100.00;99766.60;106390;1287;25369;-89
2024/01/28 08:28:10;;;;;;;34.00;28.20;;;;;;;2.35;100.00;99767.32;106350;1287;25376;-89
2024/01/28 08:30:38;;;;;;;38.00;30.00;;;;;;;2.33;100.00;99769.70;106373;1286;23895;-88
2024/01/28 08:33:06;;;;;;;33.20;29.60;;;;;;;2.35;100.00;99767.70;106508;1287;22913;-89
2024/01/28 08:35:34;;;;;;;38.00;30.60;;;;;;;2.35;100.00;99771.95;106369;1287;22673;-90
2024/01/28 08:38:03;;;;;;;36.60;29.00;;;;;;;2.37;100.00;99780.84;106401;1287;25358;-89
2024/01/28 08:40:31;;;;;;;30.50;27.10;;;;;;;2.40;100.00;99781.91;106390;1287;23368;-89
2024/01/28 08:42:59;;;;;;;32.50;24.00;;;;;;;2.41;100.00;99786.17;106501;1287;22570;-89
2024/01/28 08:45:28;;;;;;;29.80;25.30;;;;;;;2.40;100.00;99791.11;106484;1287;22651;-88
2024/01/28 08:47:56;;;;;;;29.10;22.10;;;;;;;2.39;100.00;99791.45;106552;1287;22585;-88
2024/01/28 08:50:24;;;;;;;28.90;23.60;;;;;;;2.38;100.00;99796.85;106544;1287;23066;-88
2024/01/28 08:52:52;;;;;;;27.70;24.80;;;;;;;2.38;100.00;99794.55;106480;1285;22544;-89
2024/01/28 08:55:20;;;;;;;39.60;28.20;;;;;;;2.40;100.00;99797.88;106510;1264;22578;-88
2024/01/28 08:57:47;;;;;;;67.20;41.90;;;;;;;2.40;100.00;99795.67;106448;1287;22643;-89
2024/01/28 09:00:16;;;;;;;49.10;37.60;;;;;;;2.40;100.00;99793.77;106396;1287;22673;-89
2024/01/28 09:06:56;;;;;;;28.90;24.70;;;;;;;2.41;100.00;99800.50;106411;1287;22570;-89
2024/01/28 09:09:26;;;;;;;31.60;23.50;;;;;;;2.43;100.00;99799.55;106462;1287;22663;-89
2024/01/28 09:11:54;;;;;;;45.40;23.00;;;;;;;2.46;100.00;99802.73;106489;1287;25378;-88
2024/01/28 09:14:26;;;;;;;25.40;21.90;;;;;;;2.50;100.00;99810.23;107632;1287;22630;-89
2024/01/28 09:16:54;;;;;;;29.20;23.00;;;;;;;2.53;100.00;99816.76;108415;1287;23913;-88
2024/01/28 09:19:22;;;;;;;27.40;24.10;;;;;;;2.55;100.00;99817.91;107780;1287;22570;-89
2024/01/28 09:26:18;;;;;;;29.60;24.10;;;;;;;2.55;100.00;99824.05;106653;1286;22852;-90
2024/01/28 09:28:46;;;;;;;32.20;22.70;;;;;;;2.54;100.00;99820.77;109274;1286;22585;-89
2024/01/28 09:31:14;;;;;;;27.00;21.50;;;;;;;2.52;100.00;99821.79;106546;1264;24212;-89
2024/01/28 09:33:43;;;;;;;27.30;21.30;;;;;;;2.53;100.00;99822.81;106357;1286;22691;-88
2024/01/28 09:36:11;;;;;;;26.20;21.50;;;;;;;2.55;100.00;99825.85;106295;1287;23439;-87
2024/01/28 09:38:39;;;;;;;28.00;22.90;;;;;;;2.59;100.00;99829.76;106266;1286;22595;-88
2024/01/28 09:41:23;;;;;;;30.70;25.30;;;;;;;2.65;100.00;99828.42;106396;1282;24417;-88
2024/01/28 09:43:51;;;;;;;33.10;25.10;;;;;;;2.67;100.00;99829.25;106356;1287;22626;-90
2024/01/28 09:46:24;;;;;;;48.20;39.20;;;;;;;2.68;100.00;99833.19;106230;1286;25340;-89
2024/01/28 09:48:53;;;;;;;46.80;36.80;;;;;;;2.68;100.00;99831.84;106347;1287;22702;-87
2024/01/28 09:51:23;;;;;;;33.00;25.20;;;;;;;2.67;100.00;99834.45;106298;1287;25453;-88
2024/01/28 09:53:51;;;;;;;41.10;30.20;;;;;;;2.65;100.00;99831.26;106322;1287;22577;-88
2024/01/28 09:56:20;;;;;;;35.90;26.90;;;;;;;2.66;100.00;99835.59;106315;1287;245419;-88
2024/01/28 09:58:49;;;;;;;39.70;30.40;;;;;;;2.63;100.00;99839.68;106441;1287;25396;-88
2024/01/28 10:01:17;;;;;;;47.40;36.70;;;;;;;2.65;100.00;99841.66;106507;1287;22810;-88
2024/01/28 10:03:46;;;;;;;49.90;35.50;;;;;;;2.69;100.00;99838.59;106390;1287;22646;-88
2024/01/28 10:06:14;;;;;;;52.70;38.90;;;;;;;2.71;100.00;99834.80;106396;1287;25487;-88
2024/01/28 10:08:42;;;;;;;49.20;38.90;;;;;;;2.67;100.00;99834.05;106355;1287;22585;-89
2024/01/28 10:11:11;;;;;;;45.20;37.30;;;;;;;2.65;100.00;99829.45;106294;1287;24260;-88
2024/01/28 10:13:39;;;;;;;62.90;52.30;;;;;;;2.69;100.00;99830.73;106307;1287;25460;-87
2024/01/28 10:16:07;;;;;;;40.30;34.80;;;;;;;2.73;100.00;99832.21;106346;1287;22658;-88
2024/01/28 10:18:35;;;;;;;65.20;54.50;;;;;;;2.75;100.00;99825.06;106386;1287;22576;-88
2024/01/28 10:21:03;;;;;;;55.10;48.90;;;;;;;2.73;100.00;99821.77;106433;1287;22654;-89
2024/01/28 10:23:36;;;;;;;44.20;35.70;;;;;;;2.75;100.00;99817.85;106456;1287;22666;-87
2024/01/28 10:26:05;;;;;;;39.90;34.30;;;;;;;2.76;100.00;99819.41;106452;1287;24231;-88
2024/01/28 10:32:19;;;;;;;45.00;35.00;;;;;;;2.77;100.00;99807.98;106460;1287;24112;-89
2024/01/28 10:34:47;;;;;;;41.60;32.90;;;;;;;2.76;100.00;99813.39;106451;1287;25489;-89
2024/01/28 10:38:08;;;;;;;39.60;35.10;;;;;;;2.77;100.00;99810.77;106393;1287;22563;-88
2024/01/28 10:40:40;;;;;;;40.70;31.20;;;;;;;2.81;100.00;99810.78;106419;1287;26016;-88
2024/01/28 10:43:12;;;;;;;39.10;34.20;;;;;;;2.87;100.00;99813.83;106469;1287;22645;-88
2024/01/28 10:45:43;;;;;;;46.20;41.30;;;;;;;2.93;100.00;99807.40;106478;1287;22905;-89
2024/01/28 10:48:17;;;;;;;48.40;43.10;;;;;;;2.95;100.00;99802.54;106486;1287;23909;-88
2024/01/28 10:50:47;;;;;;;52.60;47.00;;;;;;;2.98;100.00;99806.44;106443;1287;22556;-88
2024/01/28 10:53:18;;;;;;;41.00;32.70;;;;;;;2.97;100.00;99808.85;106278;1287;25155;-89
2024/01/28 10:55:46;;;;;;;38.90;32.00;;;;;;;2.96;100.00;99814.08;106427;1287;22560;-88
2024/01/28 10:58:16;;;;;;;36.30;32.30;;;;;;;3.01;100.00;99811.08;106487;1287;22549;-87
2024/01/28 11:00:45;;;;;;;37.80;33.00;;;;;;;3.04;100.00;99812.22;108863;1287;22704;-87
2024/01/28 11:03:14;;;;;;;40.80;36.40;;;;;;;3.07;100.00;99811.08;106821;1287;22559;-89
2024/01/28 11:06:09;;;;;;;44.20;39.50;;;;;;;3.07;100.00;99808.70;106316;1287;24502;-89
2024/01/28 11:08:38;;;;;;;42.10;35.30;;;;;;;3.09;100.00;99809.23;106364;1287;23392;-89
2024/01/28 11:11:06;;;;;;;41.10;34.20;;;;;;;3.10;100.00;99800.34;106476;1287;25374;-89
2024/01/28 11:13:38;;;;;;;36.20;30.70;;;;;;;3.15;100.00;99807.20;106425;1287;22655;-89
2024/01/28 11:16:07;;;;;;;34.70;31.00;;;;;;;3.14;100.00;99810.27;106402;1287;26023;-89
2024/01/28 11:18:35;;;;;;;37.10;33.30;;;;;;;3.16;100.00;99811.88;106279;1287;22745;-89
2024/01/28 11:21:13;;;;;;;31.90;27.00;;;;;;;3.14;100.00;99815.23;106411;1287;24327;-88
2024/01/28 11:23:47;;;;;;;33.70;27.10;;;;;;;3.13;100.00;99816.83;106503;1287;22560;-89
2024/01/28 11:26:17;;;;;;;36.70;31.10;;;;;;;3.13;100.00;99815.98;106461;1287;25422;-89
2024/01/28 11:28:52;;;;;;;33.60;29.50;;;;;;;3.15;100.00;99817.98;106416;1287;22578;-89
2024/01/28 11:31:31;;;;;;;38.80;30.60;;;;;;;3.16;100.00;99819.45;106393;1287;24506;-88
2024/01/28 11:34:12;;;;;;;37.50;30.30;;;;;;;3.22;100.00;99817.48;106463;1287;22665;-87
2024/01/28 11:37:22;;;;;;;33.40;27.20;;;;;;;3.18;100.00;99822.23;106602;1287;24333;-87
2024/01/28 11:40:35;;;;;;;35.70;29.30;;;;;;;3.14;100.00;99823.95;106306;1287;25251;-88
2024/01/28 11:43:47;;;;;;;38.00;32.00;;;;;;;3.14;100.00;99821.00;106304;1287;22553;-87
2024/01/28 11:46:38;;;;;;;35.70;27.70;;;;;;;3.15;100.00;99823.11;106340;1283;22779;-88
2024/01/28 11:49:08;;;;;;;40.30;32.60;;;;;;;3.14;100.00;99818.42;106324;1287;25301;-87
2024/01/28 11:51:36;;;;;;;43.50;38.80;;;;;;;3.13;100.00;99823.42;106421;1272;22564;-87
2024/01/28 11:54:04;;;;;;;36.70;29.80;;;;;;;3.09;100.00;99823.41;106392;1286;25423;-87
2024/01/28 11:56:36;;;;;;;45.10;32.10;;;;;;;3.08;100.00;99820.83;106476;1283;24466;-87
2024/01/28 11:59:09;;;;;;;37.90;31.10;;;;;;;3.09;100.00;99823.41;106419;1286;22489;-88
2024/01/28 12:01:38;;;;;;;45.00;30.20;;;;;;;3.08;100.00;99830.50;106454;1287;22543;-88
2024/01/28 12:04:08;;;;;;;36.50;30.50;;;;;;;3.05;100.00;99831.23;106385;1287;25432;-88